Terminal Aerodrome Forecast
Issued by NWS Grand Forks, ND

Home | Current Version | Previous Version | Text Only | Print | Product List | Glossary Off
Versions: 1 2 3 4 5 6 7 8 9 10 11 12 13 14

085
FTUS43 KFGF 270922 AAA
TAFGFK
TAF AMD
KGFK 270922Z 2709/2806 16006KT P6SM VCSH OVC060
      TEMPO 2709/2710 -SHRA
     FM271200 18005KT P6SM OVC060
     FM271800 19010KT P6SM SCT080
     FM280200 17005KT P6SM SCT250=

USA.gov is the U.S. government's official web portal to all federal, state and local government web resources and services.